Time;durP1;ratioP1;P1;durP2;ratioP2;P2;SDS_P1;SDS_P2;PMS_P1;PMS_P2;Temp;Humidity;BMP_temperature;BMP_pressure;BME280_temperature;BME280_humidity;BME280_pressure;Samples;Min_cycle;Max_cycle;Signal;HPM_P1;HPM_P2
2022/08/10 00:00:56;;;;;;;46.15;18.77;;;15.00;99.90;;;;;;5076435;28;20375;-73
2022/08/10 00:03:23;;;;;;;39.05;16.98;;;15.00;99.90;;;;;;5075654;28;20060;-74
2022/08/10 00:05:53;;;;;;;36.63;15.77;;;15.00;99.90;;;;;;5076463;28;20055;-73
2022/08/10 00:08:24;;;;;;;33.80;13.93;;;14.90;99.90;;;;;;5074831;28;20048;-73
2022/08/10 00:10:56;;;;;;;27.75;13.50;;;14.90;99.90;;;;;;5076121;28;20052;-73
2022/08/10 00:13:25;;;;;;;23.98;11.77;;;14.90;99.90;;;;;;5075988;28;20049;-72
2022/08/10 00:15:53;;;;;;;25.75;10.88;;;14.80;99.90;;;;;;5075115;28;20041;-72
2022/08/10 00:18:23;;;;;;;28.98;11.25;;;14.90;99.90;;;;;;5058000;28;20060;-72
2022/08/10 00:21:07;;;;;;;31.88;10.82;;;14.70;99.90;;;;;;5059477;28;20383;-72
2022/08/10 00:23:37;;;;;;;26.88;10.18;;;14.80;99.90;;;;;;5058591;28;20052;-72
2022/08/10 00:26:05;;;;;;;25.00;10.23;;;14.70;99.90;;;;;;5076198;28;20466;-72
2022/08/10 00:28:33;;;;;;;;;;;14.70;99.90;;;;;;5075078;28;20048;-73
2022/08/10 00:31:00;;;;;;;24.92;9.95;;;14.70;99.90;;;;;;5075768;28;19921;-72
2022/08/10 00:33:28;;;;;;;28.65;12.38;;;14.70;99.90;;;;;;5075635;28;20375;-72
2022/08/10 00:35:56;;;;;;;26.67;12.27;;;14.70;99.90;;;;;;5074462;28;20356;-73
2022/08/10 00:38:24;;;;;;;25.42;13.60;;;14.70;99.90;;;;;;5075920;28;20044;-72
2022/08/10 00:40:51;;;;;;;30.92;13.05;;;14.60;99.90;;;;;;5075595;28;20048;-72
2022/08/10 00:43:19;;;;;;;25.38;13.23;;;14.70;99.90;;;;;;5074403;28;20052;-73
2022/08/10 00:45:51;;;;;;;27.23;12.98;;;14.60;99.90;;;;;;5075429;28;20055;-72
2022/08/10 00:48:30;;;;;;;25.25;12.80;;;14.60;99.90;;;;;;5056772;28;20049;-74
2022/08/10 00:50:59;;;;;;;29.33;13.07;;;14.60;99.90;;;;;;5058417;28;20067;-73
2022/08/10 00:53:27;;;;;;;27.15;12.10;;;14.50;99.90;;;;;;5075642;28;20040;-73
2022/08/10 00:55:56;;;;;;;32.75;13.27;;;14.50;99.90;;;;;;5074392;28;20040;-73
2022/08/10 00:58:45;;;;;;;29.35;13.65;;;14.50;99.90;;;;;;5075441;28;20052;-73
2022/08/10 01:01:13;;;;;;;33.45;13.18;;;14.40;99.90;;;;;;5073832;28;20044;-73
2022/08/10 01:04:01;;;;;;;31.48;13.73;;;14.40;99.90;;;;;;5075331;28;20447;-73
2022/08/10 01:07:11;;;;;;;35.92;13.68;;;14.40;99.90;;;;;;5057592;28;20356;-74
2022/08/10 01:09:58;;;;;;;35.50;13.85;;;14.30;99.90;;;;;;5056315;28;20036;-74
2022/08/10 01:12:56;;;;;;;32.20;13.52;;;14.30;99.90;;;;;;5074870;28;20044;-73
2022/08/10 01:15:43;;;;;;;;;;;14.20;99.90;;;;;;5074235;28;20044;-73
2022/08/10 01:18:25;;;;;;;32.65;12.88;;;14.20;99.90;;;;;;5074989;28;19924;-74
2022/08/10 01:21:11;;;;;;;27.95;12.52;;;14.20;99.90;;;;;;5075142;28;20053;-73
2022/08/10 01:24:05;;;;;;;27.00;13.23;;;14.10;99.90;;;;;;5074835;28;20056;-73
2022/08/10 01:26:38;;;;;;;26.67;12.02;;;14.10;99.90;;;;;;5074713;28;20059;-73
2022/08/10 01:29:33;;;;;;;28.50;11.25;;;14.10;99.90;;;;;;5072894;28;20052;-73
2022/08/10 01:32:05;;;;;;;26.48;11.50;;;14.00;99.90;;;;;;5075060;28;20045;-73
2022/08/10 01:35:20;;;;;;;21.45;10.32;;;14.00;99.90;;;;;;5073697;28;20073;-73
2022/08/10 01:38:13;;;;;;;24.77;10.73;;;14.00;99.90;;;;;;5037643;28;20356;-74
2022/08/10 01:40:55;;;;;;;23.58;10.75;;;14.00;99.90;;;;;;5074485;28;20056;-73
2022/08/10 01:43:26;;;;;;;23.50;10.80;;;14.00;99.90;;;;;;5073545;28;20048;-72
2022/08/10 01:45:58;;;;;;;20.48;10.52;;;13.90;99.90;;;;;;5074643;28;20056;-72
2022/08/10 01:48:40;;;;;;;28.35;10.68;;;13.90;99.90;;;;;;5073458;28;20045;-73
2022/08/10 01:51:14;;;;;;;28.98;10.60;;;13.90;99.90;;;;;;5074615;28;20048;-73
2022/08/10 01:53:52;;;;;;;24.38;9.25;;;13.90;99.90;;;;;;5057343;28;20049;-73
2022/08/10 01:56:23;;;;;;;26.35;9.55;;;13.90;99.90;;;;;;5073509;28;20049;-73
2022/08/10 01:59:22;;;;;;;28.10;9.98;;;13.90;99.90;;;;;;5074773;28;20068;-72
2022/08/10 02:01:55;;;;;;;21.30;8.68;;;13.80;99.90;;;;;;5054654;28;20049;-73
2022/08/10 02:04:25;;;;;;;17.60;8.00;;;13.80;99.90;;;;;;5074567;28;20481;-72
2022/08/10 02:06:54;;;;;;;17.77;8.52;;;13.80;99.90;;;;;;5057218;28;20048;-74
2022/08/10 02:09:31;;;;;;;17.38;8.50;;;13.70;99.90;;;;;;5073270;28;20359;-73
2022/08/10 02:12:07;;;;;;;18.35;8.52;;;13.70;99.90;;;;;;5056766;28;20041;-73
2022/08/10 02:14:45;;;;;;;19.85;8.07;;;13.70;99.90;;;;;;5073693;28;20047;-73
2022/08/10 02:17:18;;;;;;;18.63;7.70;;;13.70;99.90;;;;;;5074318;28;20048;-73
2022/08/10 02:20:17;;;;;;;15.23;7.35;;;13.70;99.90;;;;;;5056625;28;20362;-73
2022/08/10 02:22:51;;;;;;;24.58;8.55;;;13.70;99.90;;;;;;5073137;28;20363;-74
2022/08/10 02:25:20;;;;;;;15.57;7.68;;;13.60;99.90;;;;;;5073941;28;20047;-73
2022/08/10 02:28:09;;;;;;;15.35;6.93;;;13.60;99.90;;;;;;5073150;28;20040;-72
2022/08/10 02:30:38;;;;;;;17.48;7.20;;;13.60;99.90;;;;;;5056430;28;20060;-73
2022/08/10 02:33:08;;;;;;;14.68;6.28;;;13.50;99.90;;;;;;5074694;28;20048;-73
2022/08/10 02:35:38;;;;;;;16.75;7.43;;;13.50;99.90;;;;;;5072899;28;20047;-73
2022/08/10 02:38:31;;;;;;;15.55;8.23;;;13.50;99.90;;;;;;5074352;28;20044;-73
2022/08/10 02:41:37;;;;;;;19.02;7.47;;;13.50;99.90;;;;;;5074699;28;20296;-74
2022/08/10 02:44:35;;;;;;;14.38;7.32;;;13.50;99.90;;;;;;5060202;28;20049;-73
2022/08/10 02:47:29;;;;;;;16.52;7.78;;;13.40;99.90;;;;;;5077417;28;20044;-74
2022/08/10 02:50:29;;;;;;;18.92;7.80;;;13.40;99.90;;;;;;5077752;28;20041;-74
2022/08/10 02:53:02;;;;;;;18.92;8.35;;;13.40;99.90;;;;;;5077659;28;20048;-73
2022/08/10 02:55:38;;;;;;;17.17;8.23;;;13.30;99.90;;;;;;5076769;28;20040;-73
2022/08/10 02:58:10;;;;;;;21.65;8.50;;;13.30;99.90;;;;;;5044011;28;20056;-73
2022/08/10 03:00:53;;;;;;;18.45;9.32;;;13.30;99.90;;;;;;5077505;28;20044;-73
2022/08/10 03:03:24;;;;;;;21.92;9.60;;;13.30;99.90;;;;;;5076259;28;20051;-73
2022/08/10 03:05:57;;;;;;;20.95;9.63;;;13.30;99.90;;;;;;5060006;28;20053;-74
2022/08/10 03:08:29;;;;;;;14.13;6.80;;;13.30;99.90;;;;;;5058689;28;20052;-73
2022/08/10 03:11:01;;;;;;;15.13;6.47;;;13.30;99.90;;;;;;5077285;28;20041;-73
2022/08/10 03:13:31;;;;;;;17.92;6.50;;;13.30;99.90;;;;;;5077363;28;20052;-72
2022/08/10 03:16:01;;;;;;;14.20;5.60;;;13.30;99.90;;;;;;5058759;28;20079;-74
2022/08/10 03:18:30;;;;;;;17.65;5.95;;;13.40;99.90;;;;;;5076912;28;20059;-73
2022/08/10 03:20:59;;;;;;;14.52;6.03;;;13.30;99.90;;;;;;5077666;28;20072;-73
2022/08/10 03:23:27;;;;;;;16.42;5.93;;;13.30;99.90;;;;;;5060100;28;20383;-74
2022/08/10 03:25:57;;;;;;;12.88;5.47;;;13.30;99.90;;;;;;5077085;28;20485;-73
2022/08/10 03:28:29;;;;;;;12.85;5.75;;;13.20;99.90;;;;;;5075977;28;20044;-72
2022/08/10 03:30:59;;;;;;;16.67;5.75;;;13.20;99.90;;;;;;5077018;28;20041;-72
2022/08/10 03:33:31;;;;;;;17.17;6.13;;;13.20;99.90;;;;;;5076949;28;20041;-73
2022/08/10 03:35:59;;;;;;;15.82;5.65;;;13.10;99.90;;;;;;5075727;28;20507;-73
2022/08/10 03:38:50;;;;;;;12.23;5.50;;;13.10;99.90;;;;;;5076904;28;20363;-73
2022/08/10 03:41:33;;;;;;;13.98;6.07;;;13.10;99.90;;;;;;5075796;28;20291;-73
2022/08/10 03:44:04;;;;;;;12.20;6.28;;;13.00;99.90;;;;;;5076871;28;20475;-73
2022/08/10 03:46:36;;;;;;;15.63;6.20;;;13.00;99.90;;;;;;5076996;28;20048;-73
2022/08/10 03:49:04;;;;;;;14.85;5.97;;;13.00;99.90;;;;;;5041474;28;20375;-73
2022/08/10 03:51:33;;;;;;;12.55;5.93;;;13.00;99.90;;;;;;5058824;28;20055;-74
2022/08/10 03:54:02;;;;;;;15.05;6.18;;;13.00;99.90;;;;;;5075887;28;20351;-73
2022/08/10 03:56:39;;;;;;;12.88;5.93;;;13.00;99.90;;;;;;5075319;28;20041;-73
2022/08/10 03:59:14;;;;;;;14.82;6.60;;;13.00;99.90;;;;;;5076578;28;20048;-73
2022/08/10 04:01:43;;;;;;;13.02;6.55;;;13.00;99.90;;;;;;5075365;28;20049;-73
2022/08/10 04:04:31;;;;;;;14.93;7.07;;;12.90;99.90;;;;;;5058602;28;20047;-73
2022/08/10 04:07:01;;;;;;;15.15;7.47;;;12.80;99.90;;;;;;5076162;28;20060;-73
2022/08/10 04:09:31;;;;;;;15.63;7.40;;;12.90;99.90;;;;;;5075140;28;20045;-74
2022/08/10 04:12:19;;;;;;;14.18;7.45;;;12.80;99.90;;;;;;5076126;28;20094;-73
2022/08/10 04:14:47;;;;;;;13.48;7.55;;;12.70;99.90;;;;;;5075060;28;20048;-72
2022/08/10 04:17:20;;;;;;;13.90;7.60;;;12.80;99.90;;;;;;5075842;28;20036;-73
2022/08/10 04:20:18;;;;;;;18.30;8.00;;;12.70;99.90;;;;;;5075988;28;20043;-73
2022/08/10 04:22:50;;;;;;;17.52;8.82;;;12.70;99.90;;;;;;5074733;28;20067;-73
2022/08/10 04:25:20;;;;;;;14.63;8.65;;;12.70;99.90;;;;;;5058225;28;20060;-73
2022/08/10 04:27:48;;;;;;;18.40;9.40;;;12.70;99.90;;;;;;5057135;28;20052;-73
2022/08/10 04:30:16;;;;;;;16.13;8.77;;;12.60;99.90;;;;;;5058505;28;20459;-73
2022/08/10 04:32:47;;;;;;;20.77;9.57;;;12.70;99.90;;;;;;5058429;28;20367;-73
2022/08/10 04:35:17;;;;;;;19.23;9.73;;;12.60;99.90;;;;;;5074669;28;20055;-74
2022/08/10 04:37:46;;;;;;;18.88;9.48;;;12.60;99.90;;;;;;5076202;28;20052;-72
2022/08/10 04:40:18;;;;;;;20.60;9.30;;;12.70;99.90;;;;;;5075866;28;20059;-73
2022/08/10 04:43:04;;;;;;;20.30;9.25;;;12.70;99.90;;;;;;5056960;28;20387;-73
2022/08/10 04:45:41;;;;;;;19.67;8.52;;;12.70;99.90;;;;;;5075731;28;20398;-74
2022/08/10 04:48:23;;;;;;;17.83;7.63;;;12.70;99.90;;;;;;5041542;28;20060;-73
2022/08/10 04:51:15;;;;;;;14.10;7.35;;;12.80;99.90;;;;;;5075392;28;20047;-72
2022/08/10 04:53:49;;;;;;;20.45;7.07;;;13.00;99.90;;;;;;5041722;28;20048;-73
2022/08/10 04:56:35;;;;;;;15.77;6.97;;;13.10;99.90;;;;;;5056531;28;20068;-72
2022/08/10 04:59:04;;;;;;;15.45;7.20;;;13.30;99.90;;;;;;5075075;28;20056;-72
2022/08/10 05:01:33;;;;;;;14.60;6.93;;;13.40;99.90;;;;;;5073937;28;20059;-73
2022/08/10 05:04:20;;;;;;;16.08;6.28;;;13.50;99.90;;;;;;5075130;28;20048;-73
2022/08/10 05:07:07;;;;;;;10.32;6.00;;;13.70;99.90;;;;;;5057292;28;20777;-73
2022/08/10 05:09:36;;;;;;;15.38;6.20;;;13.90;99.90;;;;;;5073877;28;20059;-73
2022/08/10 05:12:24;;;;;;;15.10;6.95;;;14.00;99.90;;;;;;5075001;28;20359;-72
2022/08/10 05:14:52;;;;;;;;;;;14.10;99.90;;;;;;5056574;28;20356;-72
2022/08/10 05:17:21;;;;;;;13.98;6.47;;;15.90;99.90;;;;;;5074641;28;19947;-73
2022/08/10 05:19:49;;;;;;;;;;;13.80;99.90;;;;;;5057956;28;20056;-72
2022/08/10 05:22:34;;;;;;;11.65;6.68;;;14.40;99.90;;;;;;5073755;28;19928;-73
2022/08/10 05:25:04;;;;;;;16.15;6.82;;;14.60;99.90;;;;;;5074754;28;20044;-73
2022/08/10 05:27:32;;;;;;;17.83;7.15;;;14.70;99.90;;;;;;5074872;28;20056;-74
2022/08/10 05:30:01;;;;;;;13.45;7.03;;;14.80;99.90;;;;;;5055826;28;20048;-73
2022/08/10 05:32:31;;;;;;;18.08;7.35;;;15.00;99.90;;;;;;5057180;28;20052;-73
2022/08/10 05:35:20;;;;;;;17.05;7.03;;;15.10;99.90;;;;;;5073742;28;20033;-73
2022/08/10 05:37:50;;;;;;;13.32;6.25;;;15.30;99.90;;;;;;5074760;28;20470;-73
2022/08/10 05:40:39;;;;;;;14.88;7.30;;;14.40;99.90;;;;;;5040973;28;20044;-74
2022/08/10 05:43:11;;;;;;;16.15;7.72;;;15.50;99.90;;;;;;5073580;28;20052;-74
2022/08/10 05:45:41;;;;;;;14.73;8.07;;;15.70;99.90;;;;;;5057336;28;20052;-73
2022/08/10 05:48:28;;;;;;;19.88;8.02;;;15.80;99.90;;;;;;5055958;28;20051;-74
2022/08/10 05:51:17;;;;;;;23.25;8.88;;;15.90;99.90;;;;;;5075039;28;20044;-72
2022/08/10 05:53:48;;;;;;;20.55;8.82;;;16.10;99.90;;;;;;5074823;28;20045;-72
2022/08/10 05:56:34;;;;;;;25.20;9.65;;;16.20;99.90;;;;;;5055729;28;20048;-74
2022/08/10 05:59:25;;;;;;;21.50;9.85;;;16.30;99.90;;;;;;5057535;28;20056;-74
2022/08/10 06:02:40;;;;;;;20.67;9.05;;;16.40;99.90;;;;;;5059154;28;20047;-74
2022/08/10 06:05:19;;;;;;;25.63;9.43;;;16.50;99.90;;;;;;5074223;28;20363;-74
2022/08/10 06:07:53;;;;;;;21.80;9.07;;;16.60;99.90;;;;;;5073840;28;20044;-72
2022/08/10 06:10:22;;;;;;;21.90;8.80;;;16.70;99.90;;;;;;5073737;28;20122;-74
2022/08/10 06:16:01;;;;;;;25.27;9.50;;;17.00;99.90;;;;;;5057172;28;20045;-73
2022/08/10 06:18:29;;;;;;;24.27;8.77;;;17.20;99.90;;;;;;5078213;28;20048;-73
2022/08/10 06:21:01;;;;;;;17.88;9.20;;;17.20;99.90;;;;;;5060546;28;20052;-74
2022/08/10 06:23:31;;;;;;;21.65;10.15;;;17.40;99.90;;;;;;5078034;28;20045;-74
2022/08/10 06:25:59;;;;;;;21.08;9.35;;;17.60;99.90;;;;;;5059796;28;20053;-77
2022/08/10 06:28:44;;;;;;;20.30;9.85;;;17.60;99.90;;;;;;5059295;28;20059;-77
2022/08/10 06:31:31;;;;;;;19.90;9.35;;;17.90;99.90;;;;;;5064228;28;20036;-78
2022/08/10 06:34:50;;;;;;;19.58;9.05;;;17.80;99.90;;;;;;5043316;28;20052;-78
2022/08/10 06:37:21;;;;;;;18.65;9.43;;;17.80;99.90;;;;;;5045449;28;20052;-76
2022/08/10 06:39:49;;;;;;;19.88;10.02;;;18.50;99.90;;;;;;5077449;28;20055;-76
2022/08/10 06:42:39;;;;;;;20.25;11.27;;;17.90;99.90;;;;;;5076999;28;20378;-76
2022/08/10 06:45:15;;;;;;;27.75;10.48;;;17.90;99.90;;;;;;5077430;28;20052;-76
2022/08/10 06:47:59;;;;;;;22.52;10.63;;;17.90;99.90;;;;;;5059122;28;20064;-77
2022/08/10 06:50:53;;;;;;;25.27;9.88;;;18.00;99.90;;;;;;5077466;28;20486;-74
2022/08/10 06:53:44;;;;;;;26.77;10.60;;;18.30;99.90;;;;;;5061040;28;20049;-73
2022/08/10 06:56:27;;;;;;;24.73;11.07;;;17.90;99.90;;;;;;5042237;28;20044;-74
2022/08/10 06:59:31;;;;;;;21.83;10.82;;;17.80;99.90;;;;;;5078114;28;20051;-75
2022/08/10 07:02:05;;;;;;;27.92;13.23;;;17.90;99.90;;;;;;5046753;28;20455;-74
2022/08/10 07:04:41;;;;;;;27.83;12.68;;;17.90;99.90;;;;;;5060574;28;20049;-73
2022/08/10 07:07:14;;;;;;;21.55;11.95;;;17.80;99.90;;;;;;5078082;28;20329;-73
2022/08/10 07:09:44;;;;;;;24.67;12.25;;;17.90;99.90;;;;;;5076081;28;20047;-73
2022/08/10 07:12:14;;;;;;;27.63;12.15;;;17.90;99.90;;;;;;5077147;28;20044;-73
2022/08/10 07:14:44;;;;;;;29.88;13.60;;;17.90;99.90;;;;;;5076471;28;20048;-73
2022/08/10 07:17:15;;;;;;;25.48;13.25;;;17.90;99.90;;;;;;5076821;28;20053;-74
2022/08/10 07:19:47;;;;;;;27.77;12.65;;;17.90;99.90;;;;;;5059693;28;20092;-75
2022/08/10 07:22:27;;;;;;;23.70;12.05;;;18.00;99.90;;;;;;5058329;28;20044;-74
2022/08/10 07:25:19;;;;;;;32.10;12.95;;;18.00;99.90;;;;;;5059534;28;20498;-74
2022/08/10 07:27:49;;;;;;;26.52;13.20;;;18.10;99.90;;;;;;5057052;28;20040;-75
2022/08/10 07:30:36;;;;;;;28.83;12.13;;;18.10;99.90;;;;;;5076938;28;20055;-74
2022/08/10 07:33:08;;;;;;;34.33;12.20;;;18.10;99.90;;;;;;5059773;28;20316;-73
2022/08/10 07:35:36;;;;;;;32.22;12.18;;;18.00;99.90;;;;;;5058313;28;20055;-74
2022/08/10 07:38:16;;;;;;;27.27;11.65;;;18.10;99.90;;;;;;5077051;28;20052;-73
2022/08/10 07:40:46;;;;;;;34.47;9.82;;;18.10;99.90;;;;;;5076751;28;20056;-72
2022/08/10 07:43:16;;;;;;;28.17;10.50;;;18.10;99.90;;;;;;5041252;28;20143;-76
2022/08/10 07:45:45;;;;;;;22.13;9.90;;;18.10;99.90;;;;;;5059515;28;20052;-75
2022/08/10 07:48:17;;;;;;;24.88;9.10;;;18.20;99.90;;;;;;5075452;28;20048;-72
2022/08/10 07:50:46;;;;;;;21.30;9.27;;;18.20;99.90;;;;;;5059157;28;20045;-73
2022/08/10 07:53:20;;;;;;;19.15;8.80;;;18.30;99.90;;;;;;5077019;28;20059;-74
2022/08/10 07:55:49;;;;;;;21.27;8.95;;;18.40;99.90;;;;;;5057819;28;20040;-75
2022/08/10 07:58:43;;;;;;;30.10;10.43;;;18.40;99.90;;;;;;5076641;28;20059;-72
2022/08/10 08:01:26;;;;;;;29.83;10.45;;;19.00;99.90;;;;;;5075594;28;20849;-75
2022/08/10 08:03:55;;;;;;;23.92;10.02;;;19.70;99.90;;;;;;5058968;28;20068;-74
2022/08/10 08:06:41;;;;;;;36.33;10.02;;;18.60;99.90;;;;;;5059211;28;20510;-74
2022/08/10 08:09:11;;;;;;;28.02;11.15;;;18.70;99.90;;;;;;5075168;28;20375;-75
2022/08/10 08:11:42;;;;;;;24.00;9.82;;;18.80;99.90;;;;;;5076023;28;20053;-72
2022/08/10 08:14:11;;;;;;;29.63;11.82;;;18.80;99.90;;;;;;5076345;28;20067;-73
2022/08/10 08:16:44;;;;;;;29.00;11.95;;;18.90;99.90;;;;;;5075057;28;20056;-73
2022/08/10 08:19:13;;;;;;;24.25;10.65;;;18.90;99.90;;;;;;5075830;28;20451;-73
2022/08/10 08:22:03;;;;;;;24.30;8.65;;;19.00;99.90;;;;;;5057527;28;20485;-74
2022/08/10 08:24:54;;;;;;;22.90;7.72;;;19.00;99.90;;;;;;5075012;28;20451;-77
2022/08/10 08:27:23;;;;;;;19.88;6.05;;;19.50;99.90;;;;;;5041150;28;20390;-79
2022/08/10 08:30:06;;;;;;;18.63;5.90;;;19.20;99.90;;;;;;5056693;28;20387;-76
2022/08/10 08:32:40;;;;;;;16.48;4.53;;;19.30;99.90;;;;;;5075223;28;20573;-77
2022/08/10 08:35:13;;;;;;;19.27;5.35;;;19.40;99.90;;;;;;5024464;28;20064;-77
2022/08/10 08:37:45;;;;;;;21.10;5.28;;;19.70;99.90;;;;;;5057738;28;20049;-75
2022/08/10 08:41:22;;;;;;;16.23;4.90;;;20.10;99.90;;;;;;5063752;28;20363;-79
2022/08/10 08:44:28;;;;;;;18.23;4.80;;;20.20;99.90;;;;;;5074360;28;20440;-78
2022/08/10 08:47:56;;;;;;;13.98;4.40;;;19.80;99.90;;;;;;5075616;28;20048;-82
2022/08/10 08:51:24;;;;;;;18.02;4.50;;;20.60;99.90;;;;;;4980626;28;20071;-83
2022/08/10 08:54:24;;;;;;;14.88;4.00;;;20.40;99.90;;;;;;5074981;28;20045;-82
2022/08/10 08:57:05;;;;;;;13.90;4.00;;;20.20;99.90;;;;;;5041916;28;20379;-79
2022/08/10 09:00:19;;;;;;;14.95;3.55;;;20.30;99.90;;;;;;5041328;28;20055;-82
2022/08/10 09:07:52;;;;;;;13.50;3.10;;;23.70;99.90;;;;;;5000213;28;20046;-82
2022/08/10 09:15:16;;;;;;;16.10;3.17;;;23.40;99.90;;;;;;5044827;28;20060;-79
2022/08/10 09:18:04;;;;;;;10.65;2.90;;;21.40;99.90;;;;;;5083511;28;20048;-76
2022/08/10 09:20:47;;;;;;;9.10;2.42;;;21.20;99.90;;;;;;5095084;28;20063;-79
2022/08/10 09:23:26;;;;;;;11.15;2.17;;;21.20;99.90;;;;;;5076214;28;20051;-80
2022/08/10 09:26:19;;;;;;;9.50;2.38;;;21.70;98.50;;;;;;5094104;28;20126;-77
2022/08/10 09:28:51;;;;;;;9.00;2.50;;;21.60;97.60;;;;;;5094060;28;20044;-83
2022/08/10 09:32:08;;;;;;;14.98;2.40;;;21.60;97.40;;;;;;5094793;28;20481;-76
2022/08/10 09:35:28;;;;;;;15.88;2.60;;;21.70;96.40;;;;;;5076215;28;20044;-76
2022/08/10 09:38:19;;;;;;;10.93;2.70;;;22.20;95.80;;;;;;5094873;28;20043;-75
2022/08/10 09:41:14;;;;;;;12.25;2.60;;;21.90;96.40;;;;;;5094983;28;20100;-76
2022/08/10 09:43:54;;;;;;;14.10;2.53;;;21.50;94.40;;;;;;5077018;28;20047;-78
2022/08/10 09:46:29;;;;;;;12.48;2.40;;;22.20;93.70;;;;;;5077175;28;20056;-76
2022/08/10 09:49:16;;;;;;;11.15;2.42;;;22.20;94.00;;;;;;5093628;28;20052;-80
2022/08/10 09:55:39;;;;;;;8.17;1.93;;;22.40;92.90;;;;;;5077572;28;20047;-83
2022/08/10 09:59:22;;;;;;;;;;;;;;;;;;;;;
2022/08/10 10:03:05;;;;;;;8.40;2.00;;;24.60;91.80;;;;;;5008070;28;20044;-79
2022/08/10 10:05:58;;;;;;;9.85;2.28;;;22.90;91.40;;;;;;5094079;28;20040;-80
2022/08/10 10:08:58;;;;;;;7.22;1.75;;;23.10;92.10;;;;;;5093806;28;20048;-76
2022/08/10 10:12:06;;;;;;;4.75;1.70;;;23.00;90.60;;;;;;5078646;28;20044;-75
2022/08/10 10:18:12;;;;;;;9.65;1.83;;;23.40;88.50;;;;;;5094097;28;20044;-75
2022/08/10 10:21:06;;;;;;;10.45;1.80;;;23.60;88.90;;;;;;5076695;28;20052;-74
2022/08/10 10:23:42;;;;;;;11.25;1.98;;;24.30;88.60;;;;;;5059726;28;20059;-79
2022/08/10 10:27:08;;;;;;;6.55;1.50;;;23.80;87.20;;;;;;5094350;28;20047;-77
2022/08/10 10:30:23;;;;;;;10.25;1.73;;;22.20;83.70;;;;;;5093361;28;20044;-81
2022/08/10 10:34:37;;;;;;;;;;;;;;;;;;;;;
2022/08/10 10:38:05;;;;;;;5.13;1.60;;;25.50;85.10;;;;;;5058494;28;20040;-78
2022/08/10 10:41:07;;;;;;;8.63;1.75;;;24.50;83.30;;;;;;5076317;28;20480;-78
2022/08/10 10:44:20;;;;;;;6.85;1.80;;;24.90;83.90;;;;;;5094302;28;20052;-79
2022/08/10 10:47:24;;;;;;;4.25;1.40;;;24.60;82.10;;;;;;5094057;28;20052;-78
2022/08/10 10:50:25;;;;;;;5.40;1.35;;;24.40;80.20;;;;;;5093515;28;20051;-76
2022/08/10 10:53:18;;;;;;;4.82;1.45;;;24.50;81.50;;;;;;5049254;28;20044;-75
2022/08/10 10:56:24;;;;;;;3.80;1.10;;;24.70;78.80;;;;;;5068765;28;20056;-76
2022/08/10 10:59:16;;;;;;;6.25;1.20;;;24.60;78.00;;;;;;5072619;28;20055;-74
2022/08/10 11:02:17;;;;;;;5.80;1.30;;;24.70;78.50;;;;;;5036560;28;20049;-75
2022/08/10 11:04:57;;;;;;;7.18;1.30;;;24.80;79.20;;;;;;5031220;28;20051;-74
2022/08/10 11:07:57;;;;;;;5.22;1.15;;;25.00;78.50;;;;;;5077023;28;20356;-76
2022/08/10 11:10:34;;;;;;;5.65;1.23;;;24.90;75.30;;;;;;4997171;28;20049;-75
2022/08/10 11:13:55;;;;;;;3.85;1.00;;;25.00;76.50;;;;;;5039694;28;20044;-76
2022/08/10 11:17:01;;;;;;;6.43;1.00;;;26.40;76.50;;;;;;5032041;28;20452;-73
2022/08/10 11:20:05;;;;;;;2.60;1.00;;;25.10;73.70;;;;;;5036632;28;20060;-73
2022/08/10 11:22:51;;;;;;;9.45;1.30;;;25.20;71.70;;;;;;5018465;28;20412;-81
2022/08/10 11:25:29;;;;;;;12.15;1.17;;;25.20;73.60;;;;;;5036923;28;20057;-74
2022/08/10 11:28:56;;;;;;;7.38;1.15;;;25.30;73.00;;;;;;5036036;28;20060;-83
2022/08/10 11:32:23;;;;;;;2.63;1.00;;;25.60;71.40;;;;;;4985803;28;20064;-75
2022/08/10 11:35:04;;;;;;;4.97;0.88;;;25.70;72.10;;;;;;4982830;28;20054;-75
2022/08/10 11:38:13;;;;;;;3.70;1.00;;;25.50;71.70;;;;;;5036414;28;20383;-79
2022/08/10 11:41:16;;;;;;;3.53;0.95;;;25.50;71.10;;;;;;5021602;28;20046;-74
2022/08/10 11:44:24;;;;;;;3.33;0.93;;;25.70;71.30;;;;;;5036212;28;20056;-78
2022/08/10 11:47:20;;;;;;;2.67;0.93;;;25.80;71.20;;;;;;5021493;28;20050;-75
2022/08/10 11:50:07;;;;;;;3.72;1.00;;;25.70;69.80;;;;;;5001838;28;20072;-75
2022/08/10 11:52:59;;;;;;;3.88;1.20;;;25.80;69.60;;;;;;5036326;28;20057;-75
2022/08/10 11:55:32;;;;;;;5.53;1.10;;;25.80;70.00;;;;;;5035388;28;20041;-76
2022/08/10 11:59:55;;;;;;;6.38;1.15;;;25.90;70.80;;;;;;5036303;28;20042;-74
2022/08/10 12:00:58;;;;;;;6.88;1.10;;;25.90;70.60;;;;;;5018752;28;20361;-74
2022/08/10 12:03:33;;;;;;;6.28;1.40;;;25.90;70.20;;;;;;5018304;28;20064;-75
2022/08/10 12:06:10;;;;;;;3.42;0.95;;;25.10;70.90;;;;;;5035313;28;20335;-75
2022/08/10 12:08:46;;;;;;;6.75;1.40;;;25.90;71.50;;;;;;5035485;28;20049;-78
2022/08/10 12:11:49;;;;;;;4.82;1.10;;;25.90;72.30;;;;;;5018397;28;20045;-79
2022/08/10 12:14:32;;;;;;;4.28;1.10;;;26.00;71.60;;;;;;5017026;28;20372;-81
2022/08/10 12:17:18;;;;;;;6.22;1.20;;;26.00;70.30;;;;;;5003085;28;20064;-81
2022/08/10 12:20:12;;;;;;;5.75;1.35;;;26.40;71.40;;;;;;5055017;28;20384;-72
2022/08/10 12:22:57;;;;;;;3.45;1.10;;;26.00;69.20;;;;;;5037519;28;20049;-72
2022/08/10 12:25:35;;;;;;;6.13;1.20;;;26.40;69.10;;;;;;5021669;28;20067;-73
2022/08/10 12:28:38;;;;;;;6.25;1.33;;;26.40;68.90;;;;;;5054616;28;20041;-72
2022/08/10 12:31:32;;;;;;;3.72;1.08;;;26.20;67.90;;;;;;5040054;28;20063;-71
2022/08/10 12:34:03;;;;;;;8.20;1.45;;;26.60;68.10;;;;;;5075237;28;20048;-71
2022/08/10 12:36:49;;;;;;;3.13;1.13;;;26.70;67.00;;;;;;5074530;28;20049;-71
2022/08/10 12:39:26;;;;;;;6.60;1.40;;;26.70;65.80;;;;;;5075409;28;20056;-71
2022/08/10 12:42:11;;;;;;;9.23;1.33;;;26.80;65.80;;;;;;5074959;28;20052;-71
2022/08/10 12:45:16;;;;;;;7.20;1.27;;;26.80;65.30;;;;;;5061282;28;20041;-71
2022/08/10 12:48:13;;;;;;;5.13;1.15;;;26.90;65.60;;;;;;5057468;28;20040;-78
2022/08/10 12:51:04;;;;;;;6.00;1.27;;;26.90;64.60;;;;;;4963369;28;20053;-79
2022/08/10 12:53:41;;;;;;;9.00;1.30;;;26.90;64.20;;;;;;5075898;28;20067;-79
2022/08/10 12:56:09;;;;;;;5.53;1.05;;;27.10;65.30;;;;;;5074733;28;20040;-80
2022/08/10 12:58:41;;;;;;;;;;;27.00;65.60;;;;;;5075948;28;20048;-81
2022/08/10 13:01:30;;;;;;;4.55;1.25;;;26.80;64.00;;;;;;5074715;28;19920;-81
2022/08/10 13:04:27;;;;;;;4.45;1.20;;;27.20;65.00;;;;;;5044662;28;20075;-80
2022/08/10 13:07:01;;;;;;;5.50;1.33;;;27.10;65.60;;;;;;5057445;28;20052;-78
2022/08/10 13:09:32;;;;;;;4.28;1.30;;;27.40;65.60;;;;;;5057750;28;20379;-81
2022/08/10 13:12:24;;;;;;;5.05;1.20;;;27.20;65.60;;;;;;5040833;28;20036;-79
2022/08/10 13:15:36;;;;;;;4.47;1.10;;;27.30;65.40;;;;;;5056996;28;20048;-79
2022/08/10 13:18:38;;;;;;;3.40;1.13;;;27.30;64.20;;;;;;5063938;28;20063;-80
2022/08/10 13:21:09;;;;;;;7.47;1.10;;;27.60;64.60;;;;;;5057058;28;20048;-81
2022/08/10 13:24:14;;;;;;;4.65;1.20;;;27.40;64.90;;;;;;5041066;28;20052;-78
2022/08/10 13:27:05;;;;;;;5.20;1.23;;;27.50;63.60;;;;;;5057881;28;20051;-80
2022/08/10 13:30:03;;;;;;;5.25;1.30;;;27.50;63.90;;;;;;5039629;28;20387;-79
2022/08/10 13:32:33;;;;;;;3.90;1.05;;;27.50;63.70;;;;;;5057695;28;20052;-80
2022/08/10 13:35:11;;;;;;;6.28;1.33;;;27.50;64.00;;;;;;5074319;28;20363;-81
2022/08/10 13:37:43;;;;;;;8.23;1.10;;;27.50;63.80;;;;;;5074926;28;20041;-81
2022/08/10 13:40:17;;;;;;;7.25;1.58;;;27.50;64.50;;;;;;5074761;28;20045;-80
2022/08/10 13:42:51;;;;;;;6.45;1.40;;;28.00;64.90;;;;;;5057483;28;20045;-79
2022/08/10 13:45:23;;;;;;;9.02;1.20;;;27.80;64.50;;;;;;5074107;28;20063;-79
2022/08/10 13:48:06;;;;;;;4.50;1.10;;;27.80;64.20;;;;;;5039241;28;20048;-79
2022/08/10 13:50:37;;;;;;;8.30;1.45;;;27.60;63.60;;;;;;5074799;28;20451;-79
2022/08/10 13:53:09;;;;;;;6.28;1.20;;;28.80;63.50;;;;;;5074580;28;20049;-74
2022/08/10 13:55:47;;;;;;;3.53;1.27;;;29.30;62.00;;;;;;5073797;28;20048;-73
2022/08/10 13:58:31;;;;;;;6.53;1.48;;;29.90;60.80;;;;;;5057903;28;20467;-74
2022/08/10 14:01:08;;;;;;;8.45;1.30;;;30.80;60.00;;;;;;5056911;28;20051;-73
2022/08/10 14:03:39;;;;;;;5.40;1.10;;;31.60;59.10;;;;;;5074636;28;20075;-72
2022/08/10 14:06:12;;;;;;;4.80;1.45;;;32.30;58.20;;;;;;5074471;28;20047;-75
2022/08/10 14:08:52;;;;;;;7.50;1.20;;;32.90;58.10;;;;;;5073065;28;20482;-74
2022/08/10 14:11:27;;;;;;;6.75;1.25;;;33.40;55.00;;;;;;5074060;28;20044;-79
2022/08/10 14:14:03;;;;;;;5.63;1.15;;;33.80;54.30;;;;;;5040134;28;20047;-77
2022/08/10 14:16:44;;;;;;;4.78;1.23;;;34.70;54.90;;;;;;5055610;28;20044;-73
2022/08/10 14:19:17;;;;;;;4.88;1.30;;;34.70;53.00;;;;;;5073883;28;20057;-73